createdAt,value
2017-11-28T00:01:30.144Z,94601.38
2017-11-28T00:03:57.532Z,94599.89
2017-11-28T00:06:24.942Z,94609.90
2017-11-28T00:08:52.293Z,94613.45
2017-11-28T00:11:19.706Z,94608.59
2017-11-28T00:13:47.142Z,94613.11
2017-11-28T00:16:14.491Z,94611.62
2017-11-28T00:18:41.918Z,94625.00
2017-11-28T00:21:09.331Z,94624.83
2017-11-28T00:23:36.681Z,94617.28
2017-11-28T00:26:04.092Z,94622.95
2017-11-28T00:28:31.441Z,94621.27
2017-11-28T00:30:58.823Z,94623.13
2017-11-28T00:33:26.218Z,94623.69
2017-11-28T00:35:53.569Z,94628.03
2017-11-28T00:38:20.952Z,94625.22
2017-11-28T00:40:48.511Z,94627.48
2017-11-28T00:43:15.871Z,94628.05
2017-11-28T00:45:43.213Z,94626.77
2017-11-28T00:48:10.648Z,94626.77
2017-11-28T00:50:38.263Z,94626.77
2017-11-28T00:53:05.723Z,94626.01
2017-11-28T00:55:33.085Z,94624.51
2017-11-28T00:58:00.441Z,94620.00
2017-11-28T01:00:27.898Z,94624.34
2017-11-28T01:02:55.305Z,94623.02
2017-11-28T01:05:22.735Z,94627.93
2017-11-28T01:07:50.140Z,94619.62
2017-11-28T01:10:17.538Z,94612.14
2017-11-28T01:12:44.931Z,94625.47
2017-11-28T01:15:12.303Z,94621.16
2017-11-28T01:17:39.997Z,94622.27
2017-11-28T01:20:07.417Z,94621.89
2017-11-28T01:22:35.113Z,94613.41
2017-11-28T01:25:02.453Z,94618.14
2017-11-28T01:27:29.868Z,94614.02
2017-11-28T01:29:57.279Z,94613.63
2017-11-28T01:32:24.711Z,94611.38
2017-11-28T01:34:52.051Z,94625.69
2017-11-28T01:37:19.540Z,94612.52
2017-11-28T01:39:47.045Z,94606.48
2017-11-28T01:42:14.451Z,94604.23
2017-11-28T01:44:41.861Z,94605.94
2017-11-28T01:47:09.491Z,94610.45
2017-11-28T01:49:36.893Z,94605.38
2017-11-28T01:52:04.276Z,94614.63
2017-11-28T01:54:31.660Z,94609.72
2017-11-28T01:56:59.317Z,94606.92
2017-11-28T01:59:28.241Z,94610.67
2017-11-28T02:01:55.636Z,94617.64
2017-11-28T02:04:22.983Z,94609.17
2017-11-28T02:06:50.353Z,94615.78
2017-11-28T02:09:17.857Z,94616.54
2017-11-28T02:11:45.251Z,94617.14
2017-11-28T02:14:12.695Z,94612.47
2017-11-28T02:16:40.179Z,94617.19
2017-11-28T02:19:07.564Z,94618.13
2017-11-28T02:21:34.991Z,94599.33
2017-11-28T02:24:02.486Z,94615.53
2017-11-28T02:26:30.173Z,94619.11
2017-11-28T02:28:57.570Z,94618.36
2017-11-28T02:31:24.982Z,94613.28
2017-11-28T02:33:52.388Z,94616.69
2017-11-28T02:36:19.793Z,94616.31
2017-11-28T02:38:47.178Z,94626.48
2017-11-28T02:41:14.564Z,94612.56
2017-11-28T02:43:41.975Z,94618.55
2017-11-28T02:46:09.358Z,94622.31
2017-11-28T02:48:36.811Z,94621.76
2017-11-28T02:51:04.222Z,94616.48
2017-11-28T02:53:31.628Z,94619.87
2017-11-28T02:55:59.066Z,94617.78
2017-11-28T02:58:26.480Z,94616.64
2017-11-28T03:00:53.872Z,94613.06
2017-11-28T03:03:21.358Z,94610.98
2017-11-28T03:05:48.805Z,94607.23
2017-11-28T03:08:16.178Z,94606.48
2017-11-28T03:10:43.629Z,94611.38
2017-11-28T03:13:11.010Z,94608.56
2017-11-28T03:15:38.398Z,94604.98
2017-11-28T03:18:05.800Z,94605.73
2017-11-28T03:20:33.182Z,94604.42
2017-11-28T03:23:00.658Z,94606.47
2017-11-28T03:25:28.068Z,94607.23
2017-11-28T03:27:55.436Z,94608.55
2017-11-28T03:30:22.829Z,94606.47
2017-11-28T03:32:50.208Z,94608.93
2017-11-28T03:35:17.625Z,94601.74
2017-11-28T03:37:45.060Z,94614.17
2017-11-28T03:40:12.442Z,94606.45
2017-11-28T03:42:39.930Z,94604.77
2017-11-28T03:45:07.344Z,94605.14
2017-11-28T03:47:34.845Z,94606.64
2017-11-28T03:50:02.224Z,94615.32
2017-11-28T03:52:29.611Z,94612.30
2017-11-28T03:54:57.100Z,94611.92
2017-11-28T03:57:24.461Z,94616.63
2017-11-28T03:59:51.838Z,94616.43
2017-11-28T04:02:19.289Z,94614.73
2017-11-28T04:04:46.771Z,94615.70
2017-11-28T04:07:14.181Z,94605.69
2017-11-28T04:09:41.605Z,94608.45
2017-11-28T04:12:09.009Z,94606.56
2017-11-28T04:14:36.418Z,94614.80
2017-11-28T04:17:03.869Z,94604.98
2017-11-28T04:19:31.254Z,94613.23
2017-11-28T04:21:58.689Z,94615.61
2017-11-28T04:24:26.063Z,94607.84
2017-11-28T04:26:53.476Z,94612.89
2017-11-28T04:29:21.155Z,94605.71
2017-11-28T04:31:48.619Z,94611.70
2017-11-28T04:34:16.028Z,94610.92
2017-11-28T04:36:43.486Z,94613.50
2017-11-28T04:39:10.923Z,94610.64
2017-11-28T04:41:38.351Z,94615.50
2017-11-28T04:44:05.831Z,94621.13
2017-11-28T04:46:33.277Z,94609.59
2017-11-28T04:49:00.743Z,94612.94
2017-11-28T04:51:28.208Z,94620.64
2017-11-28T04:53:55.568Z,94613.64
2017-11-28T04:56:23.042Z,94618.93
2017-11-28T04:58:50.484Z,94618.33
2017-11-28T05:01:17.976Z,94616.02
2017-11-28T05:03:45.431Z,94616.00
2017-11-28T05:06:12.853Z,94613.34
2017-11-28T05:08:40.226Z,94615.59
2017-11-28T05:11:07.876Z,94622.18
2017-11-28T05:13:35.269Z,94618.38
2017-11-28T05:16:02.660Z,94617.43
2017-11-28T05:18:30.125Z,94617.00
2017-11-28T05:20:57.541Z,94622.11
2017-11-28T05:23:25.056Z,94626.97
2017-11-28T05:25:52.521Z,94624.67
2017-11-28T05:28:20.024Z,94632.76
2017-11-28T05:30:47.500Z,94634.46
2017-11-28T05:33:15.013Z,94638.80
2017-11-28T05:35:42.434Z,94634.63
2017-11-28T05:38:09.924Z,94637.22
2017-11-28T05:40:37.390Z,94637.18
2017-11-28T05:43:04.780Z,94630.02
2017-11-28T05:45:32.214Z,94637.36
2017-11-28T05:47:59.663Z,94630.36
2017-11-28T05:50:27.099Z,94636.20
2017-11-28T05:52:54.643Z,94639.18
2017-11-28T05:55:22.120Z,94634.27
2017-11-28T05:57:49.695Z,94638.60
2017-11-28T06:00:17.285Z,94638.61
2017-11-28T06:02:45.573Z,94647.45
2017-11-28T06:05:13.008Z,94641.40
2017-11-28T06:07:40.507Z,94643.03
2017-11-28T06:10:08.072Z,94642.31
2017-11-28T06:12:35.532Z,94641.54
2017-11-28T06:15:02.948Z,94649.25
2017-11-28T06:17:30.424Z,94650.17
2017-11-28T06:19:57.878Z,94650.17
2017-11-28T06:22:25.307Z,94651.64
2017-11-28T06:24:52.773Z,94655.22
2017-11-28T06:27:20.166Z,94648.22
2017-11-28T06:29:47.699Z,94655.98
2017-11-28T06:32:15.447Z,94659.75
2017-11-28T06:34:43.002Z,94657.44
2017-11-28T06:37:10.607Z,94668.16
2017-11-28T06:39:38.104Z,94672.30
2017-11-28T06:42:05.545Z,94664.34
2017-11-28T06:44:33.044Z,94666.81
2017-11-28T06:47:00.553Z,94666.75
2017-11-28T06:49:28.118Z,94668.52
2017-11-28T06:51:55.775Z,94675.52
2017-11-28T06:54:23.288Z,94678.09
2017-11-28T06:56:50.901Z,94676.19
2017-11-28T06:59:18.908Z,94674.77
2017-11-28T07:01:46.513Z,94675.18
2017-11-28T07:04:14.008Z,94674.41
2017-11-28T07:06:41.740Z,94675.02
2017-11-28T07:09:09.333Z,94671.61
2017-11-28T07:11:36.835Z,94673.09
2017-11-28T07:14:04.357Z,94673.46
2017-11-28T07:16:31.873Z,94670.84
2017-11-28T07:18:59.441Z,94669.17
2017-11-28T07:21:27.012Z,94659.17
2017-11-28T07:23:56.356Z,94675.88
2017-11-28T07:26:23.827Z,94670.00
2017-11-28T07:28:51.229Z,94673.87
2017-11-28T07:31:18.831Z,94673.89
2017-11-28T07:33:46.289Z,94669.33
2017-11-28T07:36:13.700Z,94672.67
2017-11-28T07:38:41.177Z,94673.05
2017-11-28T07:41:08.686Z,94670.95
2017-11-28T07:43:36.072Z,94673.37
2017-11-28T07:46:03.542Z,94676.77
2017-11-28T07:48:40.300Z,94682.39
2017-11-28T07:51:07.754Z,94686.34
2017-11-28T07:53:35.270Z,94682.19
2017-11-28T07:56:02.880Z,94684.22
2017-11-28T07:58:32.164Z,94679.83
2017-11-28T08:01:00.118Z,94685.78
2017-11-28T08:03:28.370Z,94688.16
2017-11-28T08:05:57.202Z,94689.25
2017-11-28T08:08:24.808Z,94692.47
2017-11-28T08:10:52.278Z,94692.45
2017-11-28T08:13:20.784Z,94699.56
2017-11-28T08:15:48.617Z,94698.39
2017-11-28T08:18:16.665Z,94696.57
2017-11-28T08:20:44.200Z,94690.48
2017-11-28T08:23:11.991Z,94690.80
2017-11-28T08:25:39.766Z,94692.27
2017-11-28T08:28:07.324Z,94681.46
2017-11-28T08:30:34.971Z,94685.30
2017-11-28T08:33:03.024Z,94677.62
2017-11-28T08:35:32.677Z,94690.17
2017-11-28T08:38:00.916Z,94684.34
2017-11-28T08:40:28.392Z,94685.06
2017-11-28T08:42:55.855Z,94690.55
2017-11-28T08:45:24.022Z,94682.81
2017-11-28T08:50:27.491Z,94693.41
2017-11-28T08:52:55.987Z,94692.48
2017-11-28T08:55:23.454Z,94693.41
2017-11-28T08:57:50.989Z,94685.70
2017-11-28T09:00:18.646Z,94684.34
2017-11-28T09:02:46.410Z,94681.86
2017-11-28T09:05:14.067Z,94682.59
2017-11-28T09:07:41.741Z,94685.86
2017-11-28T09:10:10.114Z,94684.70
2017-11-28T09:12:37.590Z,94680.34
2017-11-28T09:15:05.671Z,94682.78
2017-11-28T09:17:33.152Z,94683.56
2017-11-28T09:20:00.609Z,94675.02
2017-11-28T09:22:28.075Z,94668.82
2017-11-28T09:24:55.507Z,94672.18
2017-11-28T09:27:23.037Z,94670.31
2017-11-28T09:29:50.548Z,94668.58
2017-11-28T09:32:18.661Z,94663.09
2017-11-28T09:34:46.858Z,94661.72
2017-11-28T09:37:14.379Z,94653.22
2017-11-28T09:39:42.223Z,94658.72
2017-11-28T09:42:09.782Z,94657.73
2017-11-28T09:44:37.363Z,94659.26
2017-11-28T09:47:05.954Z,94655.26
2017-11-28T09:49:34.224Z,94661.51
2017-11-28T09:52:01.645Z,94662.86
2017-11-28T09:54:30.855Z,94668.14
2017-11-28T09:56:58.633Z,94667.73
2017-11-28T09:59:26.008Z,94669.41
2017-11-28T10:01:53.492Z,94668.14
2017-11-28T10:04:20.984Z,94664.75
2017-11-28T10:06:48.424Z,94659.05
2017-11-28T10:09:15.869Z,94655.66
2017-11-28T10:11:43.386Z,94657.86
2017-11-28T10:14:10.948Z,94660.30
2017-11-28T10:16:38.441Z,94660.25
2017-11-28T10:19:06.696Z,94658.22
2017-11-28T10:21:34.181Z,94658.00
2017-11-28T10:24:01.811Z,94660.44
2017-11-28T10:26:29.375Z,94652.48
2017-11-28T10:28:56.809Z,94653.71
2017-11-28T10:31:24.263Z,94650.49
2017-11-28T10:33:51.739Z,94645.02
2017-11-28T10:36:19.233Z,94645.52
2017-11-28T10:38:47.926Z,94638.03
2017-11-28T10:41:15.311Z,94641.01
2017-11-28T10:43:42.819Z,94639.41
2017-11-28T10:46:10.303Z,94634.46
2017-11-28T10:48:37.737Z,94633.66
2017-11-28T10:53:51.953Z,94631.59
2017-11-28T10:56:19.407Z,94631.67
2017-11-28T10:58:47.120Z,94634.84
2017-11-28T11:01:15.377Z,94634.58
2017-11-28T11:03:48.242Z,94636.36
2017-11-28T11:06:23.133Z,94635.98
2017-11-28T11:08:50.996Z,94637.42
2017-11-28T11:11:18.733Z,94638.36
2017-11-28T11:13:46.915Z,94643.13
2017-11-28T11:16:14.869Z,94640.26
2017-11-28T11:18:43.209Z,94638.20
2017-11-28T11:21:10.840Z,94641.97
2017-11-28T11:23:38.357Z,94637.04
2017-11-28T11:26:07.438Z,94639.88
2017-11-28T11:28:39.117Z,94641.94
2017-11-28T11:31:13.016Z,94636.25
2017-11-28T11:33:40.528Z,94642.32
2017-11-28T11:36:08.416Z,94639.47
2017-11-28T11:38:35.863Z,94636.88
2017-11-28T11:43:42.368Z,94639.47
2017-11-28T11:46:11.547Z,94644.35
2017-11-28T11:48:39.078Z,94641.91
2017-11-28T11:51:08.583Z,94639.02
2017-11-28T11:53:36.083Z,94637.13
2017-11-28T11:56:06.112Z,94633.69
2017-11-28T11:58:35.166Z,94641.05
2017-11-28T12:01:08.066Z,94640.84
2017-11-28T12:03:35.967Z,94637.02
2017-11-28T12:06:03.600Z,94636.31
2017-11-28T12:08:31.306Z,94636.07
2017-11-28T12:10:58.762Z,94633.01
2017-11-28T12:13:26.405Z,94632.63
2017-11-28T12:15:53.883Z,94634.31
2017-11-28T12:18:21.447Z,94630.70
2017-11-28T12:20:49.160Z,94633.69
2017-11-28T12:23:16.698Z,94633.44
2017-11-28T12:25:45.036Z,94628.13
2017-11-28T12:28:12.795Z,94630.78
2017-11-28T12:30:40.221Z,94626.08
2017-11-28T12:33:07.760Z,94626.78
2017-11-28T12:35:35.783Z,94629.97
2017-11-28T12:38:03.333Z,94629.76
2017-11-28T12:40:30.929Z,94633.55
2017-11-28T12:43:00.263Z,94633.95
2017-11-28T12:45:27.829Z,94635.09
2017-11-28T12:47:55.452Z,94639.08
2017-11-28T12:50:22.915Z,94640.95
2017-11-28T12:53:03.265Z,94640.73
2017-11-28T12:55:30.844Z,94645.71
2017-11-28T12:57:58.267Z,94649.31
2017-11-28T13:00:26.377Z,94652.72
2017-11-28T13:02:55.326Z,94640.38
2017-11-28T13:05:27.082Z,94640.13
2017-11-28T13:07:54.485Z,94638.91
2017-11-28T13:10:22.191Z,94642.92
2017-11-28T13:12:51.260Z,94644.21
2017-11-28T13:15:19.511Z,94642.06
2017-11-28T13:17:48.562Z,94640.69
2017-11-28T13:20:17.082Z,94647.23
2017-11-28T13:22:44.971Z,94644.27
2017-11-28T13:25:14.604Z,94643.67
2017-11-28T13:27:42.095Z,94647.84
2017-11-28T13:30:09.852Z,94653.34
2017-11-28T13:32:37.315Z,94655.63
2017-11-28T13:35:06.308Z,94654.45
2017-11-28T13:37:33.914Z,94662.05
2017-11-28T13:40:01.447Z,94666.78
2017-11-28T13:42:28.942Z,94667.36
2017-11-28T13:44:56.456Z,94665.97
2017-11-28T13:47:24.205Z,94670.73
2017-11-28T13:49:51.844Z,94675.13
2017-11-28T13:52:19.401Z,94675.70
2017-11-28T13:54:47.023Z,94677.75
2017-11-28T13:57:16.125Z,94683.33
2017-11-28T13:59:43.753Z,94680.17
2017-11-28T14:02:13.681Z,94682.55
2017-11-28T14:04:41.986Z,94681.41
2017-11-28T14:07:09.657Z,94680.78
2017-11-28T14:09:37.127Z,94671.52
2017-11-28T14:12:04.608Z,94667.94
2017-11-28T14:14:32.279Z,94670.22
2017-11-28T14:16:59.775Z,94671.16
2017-11-28T14:19:27.940Z,94667.59
2017-11-28T14:21:55.847Z,94666.20
2017-11-28T14:24:23.247Z,94664.63
2017-11-28T14:26:51.398Z,94656.08
2017-11-28T14:29:19.027Z,94661.36
2017-11-28T14:31:47.383Z,94658.52
2017-11-28T14:34:14.870Z,94664.02
2017-11-28T14:36:42.651Z,94660.55
2017-11-28T14:39:10.147Z,94659.22
2017-11-28T14:41:37.857Z,94663.20
2017-11-28T14:44:05.855Z,94667.34
2017-11-28T14:46:33.698Z,94665.35
